Terminal Aerodrome Forecast
Issued by NWS

Home | Current Version | Previous Version | Text Only | Print | Product List | Glossary On
Versions: 1 2 3 4 5 6 7 8 9 10 11 12
000
FTUS45 KRIW 191729
TAFWRL
TAF
KWRL 191729Z 1918/2018 35007KT P6SM VCSH SCT025 BKN060
     FM192100 29013G18KT P6SM BKN070
     FM200100 25009KT P6SM BKN090
     FM200800 16008KT P6SM SCT100 SCT200=

USA.gov is the U.S. government's official web portal to all federal, state and local government web resources and services.